Humidity-temperature Sensor

Selected Measurement Type: Relative Humidity

 
Relative Humidity [%]     6 entries per hour
Showing data from 12/5/2022 (00:00:00 Z) to 12/4/2022 (00:01:00 Z)
Previous Next [ Day | 3-Days | 7-Days ]
First Last
Prev [ Day | 3-Days | 7-Days ] Next
First Last

Start Time:     :
End Time:     :     
Time (in GMT) :00 :50 :40 :30 :20 :10
Previous Next [ Day | 3-Days | 7-Days ]
First Last
Prev [ Day | 3-Days | 7-Days ] Next
First Last


123 => good data
MM => data is determined as missing
-- => data not received/configured
Back to Top Back to Top
12/5/2022 00:00 to 23:10 92.63 92.20 92.55 92.44 92.61 92.55
12/4/2022 23:00 to 22:10 92.53 92.50 92.55 92.53 91.99 91.68
12/4/2022 22:00 to 21:10 91.23 91.23 90.68 90.20 89.75 89.90
12/4/2022 21:00 to 20:10 90.18 90.18 90.70 90.98 91.54 91.99
12/4/2022 20:00 to 19:10 91.99 92.38 92.90 93.27 93.57 93.57
12/4/2022 19:00 to 18:10 93.76 93.45 93.57 94.07 94.58 94.66
12/4/2022 18:00 to 17:10 94.99 95.20 95.67 96.20 96.94 97.29
12/4/2022 17:00 to 16:10 97.83 97.93 98.48 98.51 98.73 99.16
12/4/2022 16:00 to 15:10 99.45 99.92 100.42 100.64 100.83 100.89
12/4/2022 15:00 to 14:10 100.91 100.91 100.91 100.91 100.91 100.91
12/4/2022 14:00 to 13:10 100.91 100.91 100.91 100.91 100.89 100.89
12/4/2022 13:00 to 12:10 100.83 100.64 100.50 100.31 99.76 99.53
12/4/2022 12:00 to 11:10 99.14 99.00 98.79 98.42 98.46 98.51
12/4/2022 11:00 to 10:10 98.65 98.51 98.61 98.32 98.30 97.85
12/4/2022 10:00 to 9:10 97.40 97.21 97.23 96.94 96.49 96.29
12/4/2022 09:00 to 8:10 96.20 96.37 96.12 95.92 95.51 95.40
12/4/2022 08:00 to 7:10 94.93 94.70 94.79 95.09 94.99 94.83
12/4/2022 07:00 to 6:10 95.05 95.16 94.85 94.00 92.46 91.83
12/4/2022 06:00 to 5:10 90.96 91.27 90.74 90.68 90.41 91.09
12/4/2022 05:00 to 4:10 91.25 91.46 90.92 90.53 90.82 91.23
12/4/2022 04:00 to 3:10 92.09 92.55 93.55 93.82 93.41 92.75
12/4/2022 03:00 to 2:10 91.68 91.35 91.99 92.53 92.96 93.22
12/4/2022 02:00 to 1:10 93.72 93.76 94.29 94.85 95.11 95.14
12/4/2022 01:00 to 0:10 95.32 95.01 94.46 93.43 92.83 92.03